createdAt,value
2023-02-01T00:01:07.341Z,44.25
2023-02-01T00:03:34.144Z,45.58
2023-02-01T00:06:01.339Z,46.70
2023-02-01T00:08:28.431Z,45.88
2023-02-01T00:11:01.768Z,42.67
2023-02-01T00:13:34.299Z,44.78
2023-02-01T00:16:04.895Z,40.63
2023-02-01T00:18:31.757Z,43.10
2023-02-01T00:20:58.737Z,43.30
2023-02-01T00:23:25.430Z,45.22
2023-02-01T00:25:52.178Z,44.08
2023-02-01T00:28:18.873Z,41.72
2023-02-01T00:30:46.986Z,42.20
2023-02-01T00:33:13.680Z,41.03
2023-02-01T00:35:40.393Z,41.28
2023-02-01T00:38:07.097Z,39.15
2023-02-01T00:40:41.429Z,37.80
2023-02-01T00:43:08.214Z,39.33
2023-02-01T00:45:34.875Z,36.47
2023-02-01T00:48:02.980Z,34.47
2023-02-01T00:50:29.762Z,33.45
2023-02-01T00:52:56.476Z,31.88
2023-02-01T00:55:23.196Z,28.50
2023-02-01T00:57:49.880Z,27.10
2023-02-01T01:00:17.966Z,27.38
2023-02-01T01:02:44.665Z,25.52
2023-02-01T01:05:12.769Z,24.83
2023-02-01T01:07:39.455Z,24.77
2023-02-01T01:10:07.092Z,23.38
2023-02-01T01:12:33.743Z,24.30
2023-02-01T01:15:00.424Z,23.25
2023-02-01T01:17:27.063Z,23.88
2023-02-01T01:19:53.809Z,21.55
2023-02-01T01:22:21.846Z,21.88
2023-02-01T01:24:48.477Z,21.60
2023-02-01T01:27:16.019Z,23.65
2023-02-01T01:29:42.698Z,22.30
2023-02-01T01:32:09.421Z,23.15
2023-02-01T01:34:36.204Z,23.70
2023-02-01T01:37:03.006Z,23.45
2023-02-01T01:39:31.180Z,25.05
2023-02-01T01:41:57.865Z,23.27
2023-02-01T01:44:57.955Z,23.60
2023-02-01T01:47:25.220Z,23.17
2023-02-01T01:49:52.172Z,22.98
2023-02-01T01:52:19.695Z,23.63
2023-02-01T01:54:52.364Z,24.23
2023-02-01T01:57:24.985Z,26.65
2023-02-01T01:59:56.027Z,27.02
2023-02-01T02:02:22.941Z,26.48
2023-02-01T02:04:49.847Z,27.23
2023-02-01T02:07:21.075Z,26.27
2023-02-01T02:10:00.220Z,26.30
2023-02-01T02:12:27.919Z,24.58
2023-02-01T02:14:54.910Z,26.85
2023-02-01T02:17:32.332Z,26.05
2023-02-01T02:20:40.604Z,26.60
2023-02-01T02:23:43.908Z,24.52
2023-02-01T02:26:56.493Z,26.77
2023-02-01T02:30:10.100Z,25.50
2023-02-01T02:33:15.527Z,23.70
2023-02-01T02:35:49.481Z,24.10
2023-02-01T02:38:25.781Z,23.58
2023-02-01T02:41:04.999Z,23.55
2023-02-01T02:43:36.927Z,23.95
2023-02-01T02:46:08.899Z,24.63
2023-02-01T02:48:41.908Z,24.60
2023-02-01T02:51:14.192Z,23.27
2023-02-01T02:53:49.934Z,22.25
2023-02-01T02:56:19.105Z,21.73
2023-02-01T02:58:47.588Z,21.05
2023-02-01T03:01:14.325Z,21.77
2023-02-01T03:03:41.091Z,21.05
2023-02-01T03:06:14.491Z,19.92
2023-02-01T03:08:41.184Z,21.48
2023-02-01T03:11:10.919Z,20.85
2023-02-01T03:13:42.919Z,20.95
2023-02-01T03:16:16.458Z,20.98
2023-02-01T03:18:49.772Z,19.90
2023-02-01T03:21:22.696Z,19.35
2023-02-01T03:23:51.773Z,20.15
2023-02-01T03:26:21.514Z,19.13
2023-02-01T03:28:54.757Z,20.80
2023-02-01T03:31:21.658Z,21.27
2023-02-01T03:33:48.449Z,21.25
2023-02-01T03:36:24.208Z,21.52
2023-02-01T03:38:56.625Z,19.77
2023-02-01T03:41:29.757Z,19.02
2023-02-01T03:44:02.707Z,18.65
2023-02-01T03:46:34.120Z,18.35
2023-02-01T03:49:04.500Z,19.23
2023-02-01T03:51:33.631Z,19.20
2023-02-01T03:54:04.118Z,18.75
2023-02-01T03:56:32.337Z,17.75
2023-02-01T03:58:59.002Z,18.05
2023-02-01T04:01:27.109Z,18.67
2023-02-01T04:03:53.882Z,19.15
2023-02-01T04:06:20.633Z,19.10
2023-02-01T04:08:48.781Z,19.40
2023-02-01T04:11:15.472Z,18.25
2023-02-01T04:13:42.168Z,18.27
2023-02-01T04:16:08.918Z,19.67
2023-02-01T04:18:35.618Z,20.58
2023-02-01T04:21:02.667Z,18.15
2023-02-01T04:23:29.617Z,18.85
2023-02-01T04:26:01.727Z,16.70
2023-02-01T04:28:28.697Z,15.90
2023-02-01T04:30:55.494Z,15.43
2023-02-01T04:33:22.266Z,17.30
2023-02-01T04:35:49.396Z,15.95
2023-02-01T04:38:16.162Z,17.38
2023-02-01T04:40:42.783Z,18.63
2023-02-01T04:43:10.807Z,17.40
2023-02-01T04:45:37.541Z,18.52
2023-02-01T04:48:04.858Z,18.30
2023-02-01T04:50:31.520Z,17.65
2023-02-01T04:52:58.185Z,17.92
2023-02-01T04:55:24.899Z,17.67
2023-02-01T04:57:51.536Z,17.23
2023-02-01T05:00:20.226Z,18.00
2023-02-01T05:02:46.906Z,18.50
2023-02-01T05:05:13.642Z,18.13
2023-02-01T05:07:40.408Z,19.05
2023-02-01T05:10:08.160Z,19.27
2023-02-01T05:12:34.858Z,19.67
2023-02-01T05:15:08.074Z,19.80
2023-02-01T05:17:36.206Z,19.63
2023-02-01T05:20:03.016Z,20.60
2023-02-01T05:22:29.693Z,20.13
2023-02-01T05:24:56.349Z,18.42
2023-02-01T05:27:23.015Z,17.75
2023-02-01T05:29:49.780Z,16.75
2023-02-01T05:32:22.585Z,16.92
2023-02-01T05:34:51.300Z,16.55
2023-02-01T05:37:18.027Z,15.75
2023-02-01T05:39:44.708Z,16.05
2023-02-01T05:42:11.359Z,15.85
2023-02-01T05:44:38.026Z,16.23
2023-02-01T05:47:05.142Z,16.15
2023-02-01T05:49:31.780Z,16.58
2023-02-01T05:52:00.753Z,16.50
2023-02-01T05:54:27.566Z,16.40
2023-02-01T05:56:54.245Z,16.60
2023-02-01T05:59:20.957Z,16.77
2023-02-01T06:01:47.590Z,16.98
2023-02-01T06:04:14.240Z,16.48
2023-02-01T06:06:41.059Z,17.15
2023-02-01T06:09:09.173Z,16.88
2023-02-01T06:11:35.842Z,17.05
2023-02-01T06:14:02.507Z,17.10
2023-02-01T06:16:29.262Z,17.08
2023-02-01T06:18:55.908Z,17.40
2023-02-01T06:21:22.607Z,17.08
2023-02-01T06:23:49.248Z,16.50
2023-02-01T06:26:17.560Z,16.80
2023-02-01T06:28:44.247Z,16.88
2023-02-01T06:31:11.317Z,16.63
2023-02-01T06:33:38.078Z,16.50
2023-02-01T06:36:07.685Z,17.13
2023-02-01T06:41:01.319Z,16.70
2023-02-01T06:43:29.340Z,16.85
2023-02-01T06:46:01.388Z,16.88
2023-02-01T06:48:28.195Z,15.75
2023-02-01T06:50:54.851Z,16.70
2023-02-01T06:53:21.537Z,16.08
2023-02-01T06:55:54.988Z,16.13
2023-02-01T06:58:21.704Z,16.38
2023-02-01T07:00:49.986Z,16.15
2023-02-01T07:03:16.755Z,16.35
2023-02-01T07:05:43.401Z,17.48
2023-02-01T07:08:10.037Z,19.35
2023-02-01T07:10:36.606Z,20.80
2023-02-01T07:13:03.347Z,18.88
2023-02-01T07:15:29.997Z,17.67
2023-02-01T07:17:58.237Z,17.15
2023-02-01T07:20:25.296Z,16.17
2023-02-01T07:22:56.233Z,16.52
2023-02-01T07:25:22.883Z,16.15
2023-02-01T07:27:49.537Z,15.05
2023-02-01T07:30:16.428Z,15.77
2023-02-01T07:32:43.255Z,16.30
2023-02-01T07:35:11.389Z,16.95
2023-02-01T07:37:38.069Z,15.90
2023-02-01T07:40:05.757Z,15.13
2023-02-01T07:42:32.339Z,15.10
2023-02-01T07:45:07.892Z,15.02
2023-02-01T07:47:41.563Z,14.70
2023-02-01T07:50:09.150Z,14.27
2023-02-01T07:52:37.151Z,15.55
2023-02-01T07:55:04.193Z,15.50
2023-02-01T07:57:30.811Z,14.32
2023-02-01T07:59:57.440Z,14.98
2023-02-01T08:02:24.137Z,15.70
2023-02-01T08:04:50.779Z,16.05
2023-02-01T08:07:17.462Z,15.50
2023-02-01T08:09:45.430Z,17.45
2023-02-01T08:12:12.110Z,17.00
2023-02-01T08:14:38.685Z,16.08
2023-02-01T08:17:05.265Z,16.10
2023-02-01T08:19:31.909Z,15.75
2023-02-01T08:21:58.465Z,15.48
2023-02-01T08:24:25.075Z,16.25
2023-02-01T08:26:53.119Z,15.20
2023-02-01T08:29:19.798Z,14.85
2023-02-01T08:31:46.528Z,14.88
2023-02-01T08:34:13.153Z,15.15
2023-02-01T08:36:39.778Z,14.52
2023-02-01T08:39:06.437Z,14.98
2023-02-01T08:41:33.132Z,14.77
2023-02-01T08:44:01.150Z,15.25
2023-02-01T08:46:28.111Z,15.27
2023-02-01T08:48:54.812Z,16.08
2023-02-01T08:51:23.775Z,15.52
2023-02-01T08:53:51.162Z,17.05
2023-02-01T08:56:19.000Z,16.90
2023-02-01T08:58:46.016Z,16.92
2023-02-01T09:01:16.057Z,17.55
2023-02-01T09:03:42.877Z,17.50
2023-02-01T09:06:11.766Z,18.95
2023-02-01T09:08:39.741Z,20.77
2023-02-01T09:11:09.286Z,19.88
2023-02-01T09:13:35.859Z,18.63
2023-02-01T09:16:02.659Z,19.83
2023-02-01T09:18:30.975Z,19.42
2023-02-01T09:20:57.601Z,20.35
2023-02-01T09:23:24.657Z,19.42
2023-02-01T09:25:51.615Z,19.75
2023-02-01T09:28:18.560Z,19.40
2023-02-01T09:30:45.322Z,18.25
2023-02-01T09:33:12.019Z,18.23
2023-02-01T09:35:40.093Z,17.92
2023-02-01T09:38:06.876Z,18.80
2023-02-01T09:40:35.429Z,17.50
2023-02-01T09:43:14.757Z,18.80
2023-02-01T09:45:50.377Z,17.90
2023-02-01T09:48:20.716Z,17.23
2023-02-01T09:50:53.861Z,17.95
2023-02-01T09:53:27.664Z,17.48
2023-02-01T09:56:00.633Z,18.98
2023-02-01T09:58:32.489Z,17.15
2023-02-01T10:01:02.024Z,17.63
2023-02-01T10:03:31.178Z,15.57
2023-02-01T10:06:17.090Z,16.13
2023-02-01T10:09:05.211Z,14.35
2023-02-01T10:11:43.116Z,14.63
2023-02-01T10:14:21.278Z,14.35
2023-02-01T10:16:54.426Z,13.63
2023-02-01T10:19:34.547Z,14.32
2023-02-01T10:22:07.827Z,13.38
2023-02-01T10:24:42.632Z,13.52
2023-02-01T10:27:16.069Z,13.35
2023-02-01T10:29:45.367Z,12.73
2023-02-01T10:32:15.276Z,13.27
2023-02-01T10:34:43.209Z,12.98
2023-02-01T10:37:18.973Z,12.88
2023-02-01T10:39:46.028Z,12.48
2023-02-01T10:42:12.744Z,12.85
2023-02-01T10:44:43.355Z,11.95
2023-02-01T10:47:10.226Z,12.15
2023-02-01T10:49:41.840Z,12.82
2023-02-01T10:52:16.267Z,12.32
2023-02-01T10:54:43.330Z,12.48
2023-02-01T10:57:11.368Z,12.10
2023-02-01T10:59:38.334Z,12.23
2023-02-01T11:02:19.041Z,13.32
2023-02-01T11:04:45.859Z,12.38
2023-02-01T11:07:20.355Z,12.57
2023-02-01T11:09:51.994Z,13.15
2023-02-01T11:12:29.157Z,12.88
2023-02-01T11:15:01.226Z,12.27
2023-02-01T11:17:33.219Z,13.05
2023-02-01T11:20:01.637Z,12.60
2023-02-01T11:22:30.036Z,15.00
2023-02-01T11:24:57.151Z,13.23
2023-02-01T11:27:27.566Z,15.00
2023-02-01T11:30:00.659Z,14.95
2023-02-01T11:32:28.353Z,15.88
2023-02-01T11:35:00.674Z,14.98
2023-02-01T11:37:31.392Z,13.32
2023-02-01T11:39:59.779Z,13.18
2023-02-01T11:42:27.783Z,13.30
2023-02-01T11:45:19.597Z,13.70
2023-02-01T11:47:46.853Z,13.40
2023-02-01T11:50:18.639Z,12.55
2023-02-01T11:53:04.075Z,12.40
2023-02-01T11:55:43.518Z,13.30
2023-02-01T11:58:35.911Z,13.55
2023-02-01T12:01:26.547Z,12.45
2023-02-01T12:04:28.411Z,13.55
2023-02-01T12:06:57.263Z,13.60
2023-02-01T12:09:40.870Z,13.40
2023-02-01T12:12:17.402Z,12.98
2023-02-01T12:15:09.990Z,14.30
2023-02-01T12:17:52.080Z,14.90
2023-02-01T12:20:33.075Z,14.55
2023-02-01T12:23:16.999Z,14.43
2023-02-01T12:26:05.767Z,13.05
2023-02-01T12:29:00.104Z,13.37
2023-02-01T12:31:49.232Z,12.80
2023-02-01T12:34:35.372Z,11.90
2023-02-01T12:37:15.486Z,11.35
2023-02-01T12:39:57.579Z,12.32
2023-02-01T12:42:30.087Z,11.25
2023-02-01T12:45:01.029Z,11.60
2023-02-01T12:47:33.989Z,10.52
2023-02-01T12:50:05.221Z,10.93
2023-02-01T12:52:39.266Z,10.30
2023-02-01T12:55:16.474Z,9.45
2023-02-01T12:57:48.584Z,10.27
2023-02-01T13:00:23.651Z,10.55
2023-02-01T13:02:56.152Z,10.32
2023-02-01T13:05:28.164Z,10.52
2023-02-01T13:08:01.158Z,10.25
2023-02-01T13:10:34.963Z,10.15
2023-02-01T13:13:12.388Z,10.18
2023-02-01T13:15:43.684Z,11.48
2023-02-01T13:18:17.517Z,11.25
2023-02-01T13:20:50.684Z,11.65
2023-02-01T13:23:25.812Z,11.10
2023-02-01T13:25:53.812Z,12.55
2023-02-01T13:28:27.373Z,13.20
2023-02-01T13:31:27.688Z,12.20
2023-02-01T13:34:11.072Z,11.90
2023-02-01T13:36:50.180Z,12.20
2023-02-01T13:39:37.756Z,12.82
2023-02-01T13:42:13.423Z,13.02
2023-02-01T13:44:45.658Z,14.25
2023-02-01T13:47:22.703Z,12.80
2023-02-01T13:49:50.112Z,13.50
2023-02-01T13:52:28.238Z,13.60
2023-02-01T13:55:16.231Z,13.23
2023-02-01T13:57:44.549Z,14.50
2023-02-01T14:00:27.630Z,15.27
2023-02-01T14:03:16.578Z,14.60
2023-02-01T14:06:16.649Z,14.98
2023-02-01T14:08:46.386Z,13.43
2023-02-01T14:11:33.225Z,14.85
2023-02-01T14:14:22.934Z,14.30
2023-02-01T14:17:23.035Z,15.13
2023-02-01T14:20:43.889Z,15.27
2023-02-01T14:23:23.446Z,14.52
2023-02-01T14:28:30.734Z,13.80
2023-02-01T14:30:58.742Z,13.95
2023-02-01T14:33:28.641Z,14.13
2023-02-01T14:36:04.241Z,14.50
2023-02-01T14:38:33.593Z,12.82
2023-02-01T14:41:24.790Z,13.43
2023-02-01T14:43:52.541Z,13.88
2023-02-01T14:46:20.052Z,14.27
2023-02-01T14:48:48.110Z,13.85
2023-02-01T14:51:18.328Z,14.10
2023-02-01T14:53:46.639Z,13.20
2023-02-01T14:56:17.880Z,12.10
2023-02-01T14:58:51.936Z,13.05
2023-02-01T15:01:23.439Z,13.38
2023-02-01T15:03:56.412Z,13.38
2023-02-01T15:06:31.208Z,13.00
2023-02-01T15:09:05.214Z,12.40
2023-02-01T15:11:32.013Z,12.43
2023-02-01T15:13:58.631Z,13.05
2023-02-01T15:16:26.591Z,11.95
2023-02-01T15:19:09.659Z,12.05
2023-02-01T15:21:49.551Z,11.88
2023-02-01T15:24:21.905Z,11.43
2023-02-01T15:26:49.196Z,11.43
2023-02-01T15:29:16.254Z,10.88
2023-02-01T15:31:45.333Z,11.82
2023-02-01T15:34:12.444Z,11.68
2023-02-01T15:36:40.361Z,11.48
2023-02-01T15:39:21.574Z,11.40
2023-02-01T15:41:51.150Z,11.70
2023-02-01T15:46:49.769Z,12.17
2023-02-01T15:49:25.956Z,11.50
2023-02-01T15:51:54.518Z,11.95
2023-02-01T15:54:27.159Z,12.52
2023-02-01T15:56:57.273Z,11.65
2023-02-01T15:59:33.959Z,12.70
2023-02-01T16:02:00.845Z,13.30
2023-02-01T16:04:29.458Z,13.85
2023-02-01T16:06:57.960Z,13.00
2023-02-01T16:09:37.063Z,13.73
2023-02-01T16:12:21.366Z,19.27
2023-02-01T16:14:47.983Z,20.10
2023-02-01T16:17:14.640Z,20.48
2023-02-01T16:19:41.255Z,31.98
2023-02-01T16:22:07.934Z,34.80
2023-02-01T16:24:36.118Z,39.50
2023-02-01T16:27:02.721Z,44.47
2023-02-01T16:29:29.407Z,40.38
2023-02-01T16:31:56.057Z,53.15
2023-02-01T16:34:22.880Z,57.55
2023-02-01T16:36:50.762Z,63.05
2023-02-01T16:39:17.404Z,37.75
2023-02-01T16:41:45.989Z,63.92
2023-02-01T16:44:12.830Z,57.83
2023-02-01T16:46:41.706Z,34.95
2023-02-01T16:49:19.173Z,15.65
2023-02-01T16:51:46.065Z,25.30
2023-02-01T16:54:12.733Z,22.30
2023-02-01T16:56:41.372Z,16.05
2023-02-01T16:59:09.508Z,21.48
2023-02-01T17:01:36.441Z,15.98
2023-02-01T17:04:03.167Z,17.15
2023-02-01T17:06:31.209Z,18.30
2023-02-01T17:08:59.060Z,17.25
2023-02-01T17:11:26.808Z,26.40
2023-02-01T17:13:54.268Z,28.13
2023-02-01T17:16:27.708Z,30.02
2023-02-01T17:18:57.890Z,30.08
2023-02-01T17:21:26.367Z,27.85
2023-02-01T17:23:53.692Z,32.03
2023-02-01T17:26:20.575Z,31.52
2023-02-01T17:28:47.591Z,30.48
2023-02-01T17:31:15.960Z,30.75
2023-02-01T17:33:45.326Z,28.95
2023-02-01T17:36:14.848Z,25.05
2023-02-01T17:38:41.767Z,24.63
2023-02-01T17:41:11.298Z,24.50
2023-02-01T17:43:38.557Z,25.50
2023-02-01T17:46:11.186Z,25.83
2023-02-01T17:48:37.855Z,24.67
2023-02-01T17:51:12.141Z,23.75
2023-02-01T17:53:38.791Z,27.08
2023-02-01T17:56:06.064Z,25.15
2023-02-01T17:58:32.676Z,26.60
2023-02-01T18:00:59.537Z,27.20
2023-02-01T18:03:27.947Z,25.48
2023-02-01T18:05:55.649Z,24.52
2023-02-01T18:08:26.691Z,22.73
2023-02-01T18:10:55.912Z,22.60
2023-02-01T18:13:22.697Z,22.10
2023-02-01T18:15:49.382Z,22.42
2023-02-01T18:18:16.102Z,21.88
2023-02-01T18:20:45.046Z,22.35
2023-02-01T18:23:17.135Z,22.42
2023-02-01T18:25:45.597Z,23.42
2023-02-01T18:28:12.261Z,24.23
2023-02-01T18:30:39.000Z,21.85
2023-02-01T18:33:05.738Z,22.95
2023-02-01T18:35:32.665Z,24.60
2023-02-01T18:37:59.365Z,24.08
2023-02-01T18:40:28.584Z,24.83
2023-02-01T18:42:56.825Z,25.08
2023-02-01T18:45:34.144Z,31.50
2023-02-01T18:48:01.254Z,27.58
2023-02-01T18:50:30.350Z,31.38
2023-02-01T18:52:58.635Z,35.50
2023-02-01T18:55:26.440Z,45.22
2023-02-01T18:57:53.717Z,43.85
2023-02-01T19:00:23.842Z,39.15
2023-02-01T19:02:50.580Z,36.13
2023-02-01T19:05:17.940Z,46.50
2023-02-01T19:07:45.790Z,45.33
2023-02-01T19:10:14.730Z,45.28
2023-02-01T19:12:42.036Z,44.95
2023-02-01T19:15:11.408Z,43.92
2023-02-01T19:17:39.555Z,50.50
2023-02-01T19:20:07.512Z,40.22
2023-02-01T19:22:34.158Z,39.50
2023-02-01T19:25:00.933Z,42.40
2023-02-01T19:27:27.580Z,43.05
2023-02-01T19:29:54.485Z,51.95
2023-02-01T19:32:21.263Z,44.30
2023-02-01T19:34:49.274Z,44.25
2023-02-01T19:37:15.959Z,46.63
2023-02-01T19:39:42.950Z,50.75
2023-02-01T19:42:09.676Z,64.13
2023-02-01T19:44:36.362Z,59.58
2023-02-01T19:47:03.136Z,45.00
2023-02-01T19:49:29.970Z,47.50
2023-02-01T19:51:58.004Z,48.70
2023-02-01T19:54:24.660Z,51.25
2023-02-01T19:56:51.361Z,54.65
2023-02-01T19:59:18.453Z,64.38
2023-02-01T20:01:44.762Z,68.20
2023-02-01T20:04:11.395Z,67.18
2023-02-01T20:06:40.722Z,65.97
2023-02-01T20:09:08.917Z,61.92
2023-02-01T20:11:35.577Z,59.40
2023-02-01T20:14:02.336Z,53.22
2023-02-01T20:16:29.039Z,61.50
2023-02-01T20:18:55.873Z,62.22
2023-02-01T20:21:22.559Z,62.78
2023-02-01T20:23:49.365Z,66.60
2023-02-01T20:26:18.517Z,71.13
2023-02-01T20:28:45.193Z,79.47
2023-02-01T20:31:11.847Z,79.10
2023-02-01T20:33:38.547Z,79.85
2023-02-01T20:36:05.805Z,76.25
2023-02-01T20:38:32.494Z,75.20
2023-02-01T20:41:03.119Z,75.90
2023-02-01T20:43:31.248Z,76.65
2023-02-01T20:45:57.938Z,74.47
2023-02-01T20:48:24.627Z,76.88
2023-02-01T20:50:53.202Z,79.80
2023-02-01T20:53:26.820Z,79.35
2023-02-01T20:55:54.592Z,78.65
2023-02-01T20:58:21.991Z,78.18
2023-02-01T21:00:50.722Z,77.47
2023-02-01T21:03:17.682Z,75.40
2023-02-01T21:05:47.428Z,70.97
2023-02-01T21:08:14.572Z,69.40
2023-02-01T21:10:41.431Z,69.13
2023-02-01T21:13:08.655Z,73.22
2023-02-01T21:15:35.411Z,73.03
2023-02-01T21:18:05.032Z,74.22
2023-02-01T21:22:58.340Z,69.63
2023-02-01T21:25:25.503Z,70.70
2023-02-01T21:27:55.051Z,67.38
2023-02-01T21:30:22.038Z,65.65
2023-02-01T21:32:48.946Z,62.10
2023-02-01T21:35:17.512Z,61.33
2023-02-01T21:37:44.525Z,62.33
2023-02-01T21:40:12.040Z,62.03
2023-02-01T21:42:42.824Z,63.15
2023-02-01T21:45:10.336Z,59.90
2023-02-01T21:47:37.049Z,58.67
2023-02-01T21:50:04.724Z,58.05
2023-02-01T21:52:34.302Z,53.28
2023-02-01T21:55:01.309Z,51.65
2023-02-01T21:57:28.962Z,51.95
2023-02-01T21:59:55.928Z,53.22
2023-02-01T22:02:23.205Z,57.15
2023-02-01T22:04:50.052Z,58.08
2023-02-01T22:07:17.310Z,54.70
2023-02-01T22:09:45.607Z,56.22
2023-02-01T22:12:14.268Z,53.97
2023-02-01T22:14:41.273Z,51.55
2023-02-01T22:17:08.834Z,52.13
2023-02-01T22:19:38.422Z,53.85
2023-02-01T22:22:09.990Z,51.85
2023-02-01T22:24:36.782Z,50.53
2023-02-01T22:27:13.824Z,52.63
2023-02-01T22:29:41.787Z,51.85
2023-02-01T22:32:09.388Z,51.67
2023-02-01T22:34:36.522Z,56.17
2023-02-01T22:37:05.753Z,56.72
2023-02-01T22:39:32.547Z,58.03
2023-02-01T22:41:59.197Z,54.45
2023-02-01T22:44:27.232Z,57.72
2023-02-01T22:46:53.880Z,60.03
2023-02-01T22:49:20.461Z,60.53
2023-02-01T22:51:47.099Z,62.05
2023-02-01T22:54:17.428Z,62.97
2023-02-01T22:56:44.095Z,61.85
2023-02-01T22:59:12.380Z,61.70
2023-02-01T23:01:41.010Z,63.25
2023-02-01T23:04:10.977Z,59.90
2023-02-01T23:06:37.613Z,57.90
2023-02-01T23:09:10.407Z,58.28
2023-02-01T23:11:37.790Z,57.67
2023-02-01T23:14:04.976Z,57.00
2023-02-01T23:16:31.735Z,58.17
2023-02-01T23:19:02.258Z,55.45
2023-02-01T23:21:28.901Z,51.13
2023-02-01T23:23:57.662Z,49.97
2023-02-01T23:26:26.966Z,48.20
2023-02-01T23:28:54.443Z,49.35
2023-02-01T23:31:22.604Z,51.80
2023-02-01T23:33:49.360Z,49.60
2023-02-01T23:36:17.401Z,49.97
2023-02-01T23:38:44.691Z,51.63
2023-02-01T23:41:12.722Z,47.85
2023-02-01T23:43:39.572Z,49.65
2023-02-01T23:46:06.269Z,49.97
2023-02-01T23:48:32.942Z,50.60
2023-02-01T23:50:59.576Z,48.80
2023-02-01T23:53:27.615Z,48.88
2023-02-01T23:55:55.079Z,46.50
2023-02-01T23:58:22.653Z,47.28
